createdAt,value
2019-03-19T00:05:29.088Z,75.18
2019-03-19T00:14:03.661Z,74.85
2019-03-19T00:18:08.830Z,74.05
2019-03-19T00:22:13.988Z,74.14
2019-03-19T00:26:19.208Z,73.93
2019-03-19T00:30:24.362Z,74.53
2019-03-19T00:34:29.489Z,74.67
2019-03-19T00:38:34.666Z,75.59
2019-03-19T00:42:39.866Z,75.68
2019-03-19T00:46:45.067Z,74.64
2019-03-19T00:55:27.574Z,73.73
2019-03-19T00:59:32.709Z,73.12
2019-03-19T01:03:37.830Z,74.24
2019-03-19T01:07:42.955Z,74.66
2019-03-19T01:16:03.471Z,75.67
2019-03-19T01:20:10.614Z,74.60
2019-03-19T01:24:15.806Z,74.57
2019-03-19T01:28:23.401Z,73.83
2019-03-19T01:36:58.492Z,73.23
2019-03-19T01:41:04.387Z,73.21
2019-03-19T01:45:11.860Z,73.09
2019-03-19T01:49:17.070Z,73.95
2019-03-19T01:53:22.301Z,74.82
2019-03-19T01:57:27.514Z,75.68
2019-03-19T02:01:32.740Z,74.69
2019-03-19T02:05:37.944Z,73.97
2019-03-19T02:09:43.086Z,74.39
2019-03-19T02:13:48.516Z,74.57
2019-03-19T02:17:53.637Z,73.93
2019-03-19T02:21:58.863Z,73.24
2019-03-19T02:26:04.001Z,73.83
2019-03-19T02:30:10.231Z,74.31
2019-03-19T02:34:15.298Z,74.41
2019-03-19T02:38:23.296Z,74.93
2019-03-19T02:42:28.479Z,74.82
2019-03-19T02:46:33.697Z,74.18
2019-03-19T02:50:38.867Z,73.28
2019-03-19T02:54:45.782Z,73.82
2019-03-19T02:58:51.154Z,75.04
2019-03-19T03:02:58.045Z,76.41
2019-03-19T03:07:04.100Z,76.62
2019-03-19T03:11:09.247Z,77.10
2019-03-19T03:19:53.531Z,77.39
2019-03-19T03:23:58.643Z,76.01
2019-03-19T03:28:03.788Z,76.26
2019-03-19T03:32:09.028Z,76.39
2019-03-19T03:36:14.209Z,74.49
2019-03-19T03:40:19.557Z,75.63
2019-03-19T03:44:36.005Z,76.38
2019-03-19T03:48:41.288Z,76.18
2019-03-19T03:52:46.516Z,77.16
2019-03-19T03:57:01.704Z,76.45
2019-03-19T04:01:07.874Z,77.20
2019-03-19T04:05:13.070Z,77.15
2019-03-19T04:09:19.960Z,77.29
2019-03-19T04:13:25.460Z,76.35
2019-03-19T04:17:32.353Z,76.51
2019-03-19T04:21:37.672Z,75.68
2019-03-19T04:25:54.786Z,76.21
2019-03-19T04:29:55.507Z,76.85
2019-03-19T04:34:00.732Z,76.53
2019-03-19T04:38:05.979Z,76.80
2019-03-19T04:42:11.152Z,77.08
2019-03-19T04:46:16.404Z,77.50
2019-03-19T04:50:21.602Z,77.25
2019-03-19T04:54:26.799Z,77.46
2019-03-19T04:58:32.036Z,77.56
2019-03-19T05:02:37.294Z,77.59
2019-03-19T05:06:42.412Z,77.71
2019-03-19T05:10:47.656Z,77.80
2019-03-19T05:14:53.282Z,77.62
2019-03-19T05:18:58.581Z,77.96
2019-03-19T05:23:03.815Z,77.88
2019-03-19T05:27:37.017Z,78.32
2019-03-19T05:32:06.580Z,77.65
2019-03-19T05:36:26.034Z,77.79
2019-03-19T05:40:31.229Z,77.78
2019-03-19T05:44:37.949Z,78.17
2019-03-19T05:48:43.232Z,78.27
2019-03-19T05:52:52.255Z,78.48
2019-03-19T05:56:57.454Z,78.88
2019-03-19T06:01:02.698Z,78.83
2019-03-19T06:05:09.381Z,77.95
2019-03-19T06:09:14.732Z,78.34
2019-03-19T06:13:38.930Z,76.98
2019-03-19T06:18:05.531Z,76.14
2019-03-19T06:22:25.060Z,76.36
2019-03-19T06:36:07.227Z,76.54
2019-03-19T06:40:27.712Z,76.33
2019-03-19T06:44:32.928Z,75.24
2019-03-19T06:48:38.148Z,73.12
2019-03-19T06:52:45.061Z,73.08
2019-03-19T06:56:51.752Z,73.36
2019-03-19T07:05:25.826Z,71.85
2019-03-19T07:09:30.889Z,72.54
2019-03-19T07:13:35.994Z,70.46
2019-03-19T07:17:42.155Z,72.08
2019-03-19T07:21:58.554Z,70.90
2019-03-19T07:26:03.803Z,72.79
2019-03-19T07:30:11.190Z,69.52
2019-03-19T07:34:16.374Z,68.65
2019-03-19T07:38:40.506Z,67.88
2019-03-19T07:42:57.090Z,66.58
2019-03-19T07:47:02.303Z,66.36
2019-03-19T07:51:07.552Z,66.16
2019-03-19T07:55:12.741Z,65.28
2019-03-19T07:59:20.584Z,63.87
2019-03-19T08:03:25.765Z,63.62
2019-03-19T08:07:31.287Z,64.10
2019-03-19T08:11:36.578Z,63.26
2019-03-19T08:15:41.790Z,61.80
2019-03-19T08:19:47.070Z,60.99
2019-03-19T08:24:06.492Z,61.67
2019-03-19T08:28:21.413Z,59.76
2019-03-19T08:32:26.604Z,58.34
2019-03-19T08:36:31.817Z,57.95
2019-03-19T08:40:36.981Z,56.29
2019-03-19T08:44:42.080Z,53.80
2019-03-19T08:48:47.274Z,52.18
2019-03-19T08:52:54.984Z,51.28
2019-03-19T08:57:20.002Z,51.35
2019-03-19T09:01:25.299Z,47.25
2019-03-19T09:05:43.488Z,48.45
2019-03-19T09:09:43.351Z,49.71
2019-03-19T09:13:48.653Z,45.79
2019-03-19T09:22:11.034Z,44.71
2019-03-19T09:26:16.274Z,43.58
2019-03-19T09:30:22.331Z,43.74
2019-03-19T09:34:27.514Z,41.79
2019-03-19T09:38:32.599Z,42.48
2019-03-19T09:42:37.730Z,42.41
2019-03-19T09:46:43.107Z,40.85
2019-03-19T09:50:48.300Z,40.65
2019-03-19T09:54:53.536Z,41.03
2019-03-19T09:58:58.739Z,42.14
2019-03-19T10:03:04.017Z,42.17
2019-03-19T10:07:09.138Z,42.64
2019-03-19T10:11:14.351Z,40.91
2019-03-19T10:15:19.709Z,41.61
2019-03-19T10:19:25.105Z,42.12
2019-03-19T10:23:30.287Z,42.22
2019-03-19T10:31:52.084Z,42.43
2019-03-19T10:36:17.721Z,43.42
2019-03-19T10:40:22.822Z,44.43
2019-03-19T10:44:28.268Z,43.28
2019-03-19T10:48:33.423Z,43.52
2019-03-19T10:52:39.314Z,42.99
2019-03-19T10:56:44.517Z,43.31
2019-03-19T11:00:49.660Z,41.63
2019-03-19T11:04:54.889Z,41.15
2019-03-19T11:09:00.498Z,40.56
2019-03-19T11:13:07.281Z,42.00
2019-03-19T11:17:23.822Z,44.35
2019-03-19T11:21:29.352Z,43.57
2019-03-19T11:26:05.461Z,39.66
2019-03-19T11:34:58.213Z,38.99
2019-03-19T11:43:34.771Z,40.52
2019-03-19T11:47:39.946Z,40.28
2019-03-19T11:51:45.227Z,39.41
2019-03-19T11:56:02.579Z,40.77
2019-03-19T12:00:38.146Z,39.33
2019-03-19T12:04:43.374Z,39.11
2019-03-19T12:08:48.585Z,39.48
2019-03-19T12:12:54.033Z,43.12
2019-03-19T12:16:59.267Z,41.54
2019-03-19T12:21:04.476Z,38.00
2019-03-19T12:25:16.834Z,38.89
2019-03-19T12:29:22.088Z,38.67
2019-03-19T12:33:27.221Z,39.09
2019-03-19T12:37:32.448Z,40.71
2019-03-19T12:41:37.650Z,40.28
2019-03-19T12:45:44.546Z,40.73
2019-03-19T12:49:49.775Z,42.01
2019-03-19T12:53:55.000Z,39.91
2019-03-19T12:58:01.347Z,42.32
2019-03-19T13:02:18.350Z,44.40
2019-03-19T13:06:23.577Z,42.70
2019-03-19T13:10:29.659Z,43.11
2019-03-19T13:14:34.873Z,41.21
2019-03-19T13:18:40.015Z,40.03
2019-03-19T13:22:45.312Z,39.52
2019-03-19T13:27:02.549Z,40.80
2019-03-19T13:31:07.754Z,41.41
2019-03-19T13:35:15.230Z,41.26
2019-03-19T13:39:20.452Z,41.62
2019-03-19T13:43:25.697Z,41.84
2019-03-19T13:47:30.917Z,42.37
2019-03-19T13:51:36.027Z,42.33
2019-03-19T13:55:41.307Z,41.83
2019-03-19T13:59:46.480Z,42.76
2019-03-19T14:03:51.621Z,43.88
2019-03-19T14:07:56.718Z,43.60
2019-03-19T14:12:04.337Z,44.64
2019-03-19T14:16:09.466Z,45.53
2019-03-19T14:20:15.702Z,45.02
2019-03-19T14:28:37.867Z,45.57
2019-03-19T14:32:43.033Z,45.77
2019-03-19T14:36:48.271Z,45.09
2019-03-19T14:40:53.444Z,46.13
2019-03-19T14:45:01.088Z,44.17
2019-03-19T14:49:06.389Z,43.93
2019-03-19T14:53:11.655Z,43.91
2019-03-19T14:57:16.875Z,44.36
2019-03-19T15:01:37.012Z,45.38
2019-03-19T15:05:44.019Z,45.26
2019-03-19T15:09:49.202Z,46.45
2019-03-19T15:13:55.313Z,45.60
2019-03-19T15:18:00.565Z,46.70
2019-03-19T15:22:05.737Z,46.77
2019-03-19T15:30:40.601Z,47.25
2019-03-19T15:34:45.768Z,49.22
2019-03-19T15:38:50.953Z,51.32
2019-03-19T15:42:56.070Z,53.13
2019-03-19T15:47:01.187Z,54.60
2019-03-19T15:51:06.436Z,53.06
2019-03-19T15:55:11.956Z,53.59
2019-03-19T15:59:17.196Z,53.19
2019-03-19T16:03:22.356Z,49.78
2019-03-19T16:07:27.552Z,51.16
2019-03-19T16:11:32.840Z,48.94
2019-03-19T16:15:57.086Z,49.57
2019-03-19T16:20:02.344Z,47.20
2019-03-19T16:24:07.497Z,47.82
2019-03-19T16:28:12.917Z,46.69
2019-03-19T16:32:18.104Z,46.69
2019-03-19T16:36:23.213Z,45.84
2019-03-19T16:40:28.421Z,46.16
2019-03-19T16:44:33.639Z,45.81
2019-03-19T16:48:39.091Z,45.79
2019-03-19T16:52:44.240Z,45.57
2019-03-19T16:56:50.311Z,45.24
2019-03-19T17:00:55.530Z,45.14
2019-03-19T17:05:00.823Z,43.96
2019-03-19T17:32:58.356Z,47.39
2019-03-19T17:41:22.827Z,51.48
2019-03-19T17:49:58.136Z,54.09
2019-03-19T17:54:03.482Z,55.65
2019-03-19T17:58:27.905Z,56.77
2019-03-19T18:06:49.779Z,56.63
2019-03-19T18:10:55.201Z,56.82
2019-03-19T18:15:00.505Z,56.79
2019-03-19T18:19:05.785Z,59.03
2019-03-19T18:23:29.312Z,58.47
2019-03-19T18:27:32.759Z,59.53
2019-03-19T18:31:38.036Z,60.24
2019-03-19T18:35:43.493Z,62.81
2019-03-19T18:39:48.746Z,62.81
2019-03-19T18:48:21.819Z,60.24
2019-03-19T18:52:27.043Z,61.09
2019-03-19T18:56:32.283Z,60.49
2019-03-19T19:00:37.474Z,61.39
2019-03-19T19:04:42.675Z,63.70
2019-03-19T19:08:47.864Z,64.29
2019-03-19T19:12:53.158Z,66.01
2019-03-19T19:16:58.426Z,67.74
2019-03-19T19:21:03.651Z,67.74
2019-03-19T19:25:11.950Z,67.36
2019-03-19T19:29:17.098Z,68.26
2019-03-19T19:33:22.397Z,68.69
2019-03-19T19:37:27.749Z,68.77
2019-03-19T19:41:33.272Z,68.97
2019-03-19T19:45:39.215Z,69.56
2019-03-19T19:49:44.783Z,69.09
2019-03-19T19:54:01.665Z,68.47
2019-03-19T20:02:23.027Z,70.14
2019-03-19T20:06:28.257Z,70.91
2019-03-19T20:10:33.424Z,69.49
2019-03-19T20:14:38.670Z,69.96
2019-03-19T20:23:24.997Z,70.95
2019-03-19T20:27:30.262Z,71.08
2019-03-19T20:31:35.675Z,71.20
2019-03-19T20:35:40.890Z,69.80
2019-03-19T20:39:47.420Z,69.23
2019-03-19T20:43:52.577Z,71.67
2019-03-19T20:47:57.776Z,71.78
2019-03-19T20:52:03.124Z,69.92
2019-03-19T20:56:08.351Z,69.58
2019-03-19T21:00:15.277Z,69.07
2019-03-19T21:04:20.586Z,70.93
2019-03-19T21:08:27.653Z,71.19
2019-03-19T21:12:32.891Z,70.88
2019-03-19T21:16:54.181Z,71.32
2019-03-19T21:20:54.355Z,72.74
2019-03-19T21:24:59.654Z,72.29
2019-03-19T21:29:05.025Z,72.55
2019-03-19T21:37:27.548Z,73.60
2019-03-19T21:41:32.786Z,72.27
2019-03-19T21:45:38.038Z,73.18
2019-03-19T21:49:45.220Z,71.89
2019-03-19T21:54:09.485Z,71.83
2019-03-19T21:58:14.664Z,71.16
2019-03-19T22:02:21.620Z,72.81
2019-03-19T22:06:26.924Z,73.69
2019-03-19T22:10:33.778Z,73.54
2019-03-19T22:14:39.194Z,74.06
2019-03-19T22:19:06.538Z,73.35
2019-03-19T22:23:11.676Z,74.09
2019-03-19T22:27:16.920Z,74.59
2019-03-19T22:31:22.102Z,74.94
2019-03-19T22:40:02.387Z,74.67
2019-03-19T22:44:07.590Z,74.76
2019-03-19T22:48:12.886Z,74.46
2019-03-19T22:52:18.889Z,74.92
2019-03-19T22:56:24.129Z,73.43
2019-03-19T23:00:48.528Z,73.49
2019-03-19T23:04:53.781Z,74.35
2019-03-19T23:08:58.956Z,73.21
2019-03-19T23:13:30.715Z,71.20
2019-03-19T23:17:35.999Z,70.50
2019-03-19T23:21:41.372Z,69.56
2019-03-19T23:25:46.622Z,68.97
2019-03-19T23:29:53.911Z,70.50
2019-03-19T23:33:59.081Z,70.44
2019-03-19T23:38:04.271Z,70.92
2019-03-19T23:42:09.397Z,70.28
2019-03-19T23:46:14.658Z,69.94
2019-03-19T23:50:19.853Z,69.79
2019-03-19T23:54:25.025Z,70.64
2019-03-19T23:58:31.884Z,70.95
